Swink, Colorado
Current Conditions -  °F | °C
As of 9:53 AM on Saturday 22 Nov 2014 (Local Time) from KLHX Reporting Station
Clear Clear  
Wind Chill: 50°   Ceiling: Unl
Heat Index: 50°   Visibility: 10mi
Dew Point: 31°   Wind: 13mph
Humidity: 48%   Direction: 220°SW
Pressure: 29.81"   Gusts: NA
Location:  38.01°N, 103.63°W
Report Text: KLHX 221653Z AUTO 22011KT 10SM CLR 10/M01 A2981 RMK AO2 SLP082 T01001006
Loading
Personal Weather Stations






























Interactive Weather Map New forecast layout! Learn more

10-Day Weather Forecast

Advertisements
Track Severe Weather on mobile